sensor_id;sensor_type;location;lat;lon;timestamp;pressure;altitude;pressure_sealevel;temperature;humidity
37020;BME280;22932;52.442;16.896;2022-11-10T00:00:43;100407.89;;;9.26;82.31
37020;BME280;22932;52.442;16.896;2022-11-10T00:03:12;100406.23;;;9.27;82.38
37020;BME280;22932;52.442;16.896;2022-11-10T00:05:42;100405.52;;;9.27;82.36
37020;BME280;22932;52.442;16.896;2022-11-10T00:08:12;100408.05;;;9.26;82.48
37020;BME280;22932;52.442;16.896;2022-11-10T00:10:42;100408.21;;;9.26;82.44
37020;BME280;22932;52.442;16.896;2022-11-10T00:13:30;100415.06;;;9.26;82.57
37020;BME280;22932;52.442;16.896;2022-11-10T00:16:02;100415.08;;;9.26;82.55
37020;BME280;22932;52.442;16.896;2022-11-10T00:18:49;100417.41;;;9.26;82.62
37020;BME280;22932;52.442;16.896;2022-11-10T00:21:19;100415.94;;;9.27;82.65
37020;BME280;22932;52.442;16.896;2022-11-10T00:23:48;100414.69;;;9.26;82.81
37020;BME280;22932;52.442;16.896;2022-11-10T00:26:19;100414.83;;;9.27;82.87
37020;BME280;22932;52.442;16.896;2022-11-10T00:28:48;100420.30;;;9.28;82.92
37020;BME280;22932;52.442;16.896;2022-11-10T00:31:18;100424.91;;;9.29;82.95
37020;BME280;22932;52.442;16.896;2022-11-10T00:33:47;100427.73;;;9.29;82.90
37020;BME280;22932;52.442;16.896;2022-11-10T00:36:17;100426.40;;;9.30;83.14
37020;BME280;22932;52.442;16.896;2022-11-10T00:38:48;100430.77;;;9.32;83.08
37020;BME280;22932;52.442;16.896;2022-11-10T00:41:18;100435.75;;;9.32;83.11
37020;BME280;22932;52.442;16.896;2022-11-10T00:43:47;100435.48;;;9.33;83.20
37020;BME280;22932;52.442;16.896;2022-11-10T00:46:17;100436.81;;;9.34;83.21
37020;BME280;22932;52.442;16.896;2022-11-10T00:48:46;100442.73;;;9.35;83.38
37020;BME280;22932;52.442;16.896;2022-11-10T00:51:21;100444.52;;;9.35;83.42
37020;BME280;22932;52.442;16.896;2022-11-10T00:53:51;100446.02;;;9.36;83.40
37020;BME280;22932;52.442;16.896;2022-11-10T00:56:22;100443.17;;;9.38;83.47
37020;BME280;22932;52.442;16.896;2022-11-10T00:58:50;100439.18;;;9.38;83.58
37020;BME280;22932;52.442;16.896;2022-11-10T01:01:21;100437.50;;;9.39;83.57
37020;BME280;22932;52.442;16.896;2022-11-10T01:03:52;100436.70;;;9.40;83.71
37020;BME280;22932;52.442;16.896;2022-11-10T01:06:22;100444.03;;;9.40;83.72
37020;BME280;22932;52.442;16.896;2022-11-10T01:08:52;100442.52;;;9.42;83.80
37020;BME280;22932;52.442;16.896;2022-11-10T01:11:23;100437.01;;;9.43;83.76
37020;BME280;22932;52.442;16.896;2022-11-10T01:13:54;100441.49;;;9.43;83.95
37020;BME280;22932;52.442;16.896;2022-11-10T01:16:26;100442.11;;;9.44;83.78
37020;BME280;22932;52.442;16.896;2022-11-10T01:18:58;100446.23;;;9.44;83.92
37020;BME280;22932;52.442;16.896;2022-11-10T01:21:28;100447.13;;;9.44;83.98
37020;BME280;22932;52.442;16.896;2022-11-10T01:23:58;100445.63;;;9.45;84.00
37020;BME280;22932;52.442;16.896;2022-11-10T01:26:28;100446.23;;;9.46;84.07
37020;BME280;22932;52.442;16.896;2022-11-10T01:28:57;100446.86;;;9.47;84.17
37020;BME280;22932;52.442;16.896;2022-11-10T01:31:27;100451.21;;;9.49;84.23
37020;BME280;22932;52.442;16.896;2022-11-10T01:33:56;100451.52;;;9.50;84.22
37020;BME280;22932;52.442;16.896;2022-11-10T01:36:26;100452.58;;;9.52;84.26
37020;BME280;22932;52.442;16.896;2022-11-10T01:38:56;100451.42;;;9.53;84.37
37020;BME280;22932;52.442;16.896;2022-11-10T01:41:25;100452.84;;;9.53;84.48
37020;BME280;22932;52.442;16.896;2022-11-10T01:44:15;100456.21;;;9.53;84.46
37020;BME280;22932;52.442;16.896;2022-11-10T01:46:45;100456.44;;;9.55;84.59
37020;BME280;22932;52.442;16.896;2022-11-10T01:49:16;100455.16;;;9.55;84.57
37020;BME280;22932;52.442;16.896;2022-11-10T01:51:50;100456.89;;;9.56;84.58
37020;BME280;22932;52.442;16.896;2022-11-10T01:54:25;100458.39;;;9.57;84.63
37020;BME280;22932;52.442;16.896;2022-11-10T01:56:59;100460.27;;;9.58;84.68
37020;BME280;22932;52.442;16.896;2022-11-10T01:59:33;100464.01;;;9.59;84.71
37020;BME280;22932;52.442;16.896;2022-11-10T02:02:14;100463.13;;;9.59;84.67
37020;BME280;22932;52.442;16.896;2022-11-10T02:04:47;100464.57;;;9.59;84.61
37020;BME280;22932;52.442;16.896;2022-11-10T02:07:19;100462.92;;;9.57;84.68
37020;BME280;22932;52.442;16.896;2022-11-10T02:09:49;100467.81;;;9.57;84.76
37020;BME280;22932;52.442;16.896;2022-11-10T02:12:20;100467.72;;;9.56;84.81
37020;BME280;22932;52.442;16.896;2022-11-10T02:15:05;100469.55;;;9.55;84.93
37020;BME280;22932;52.442;16.896;2022-11-10T02:17:36;100467.80;;;9.55;84.87
37020;BME280;22932;52.442;16.896;2022-11-10T02:20:08;100466.91;;;9.54;85.03
37020;BME280;22932;52.442;16.896;2022-11-10T02:22:39;100472.07;;;9.55;84.98
37020;BME280;22932;52.442;16.896;2022-11-10T02:25:09;100468.80;;;9.54;85.06
37020;BME280;22932;52.442;16.896;2022-11-10T02:27:40;100468.29;;;9.53;85.13
37020;BME280;22932;52.442;16.896;2022-11-10T02:30:11;100469.22;;;9.53;85.25
37020;BME280;22932;52.442;16.896;2022-11-10T02:32:41;100472.17;;;9.52;85.38
37020;BME280;22932;52.442;16.896;2022-11-10T02:35:10;100473.28;;;9.51;85.33
37020;BME280;22932;52.442;16.896;2022-11-10T02:37:40;100474.93;;;9.51;85.47
37020;BME280;22932;52.442;16.896;2022-11-10T08:25:24;100931.45;;;10.47;88.59
37020;BME280;22932;52.442;16.896;2022-11-10T08:27:59;100937.80;;;10.48;88.36
37020;BME280;22932;52.442;16.896;2022-11-10T08:30:29;100939.64;;;10.52;88.34
37020;BME280;22932;52.442;16.896;2022-11-10T08:33:00;100940.61;;;10.69;88.45
37020;BME280;22932;52.442;16.896;2022-11-10T08:35:30;100945.15;;;10.88;88.35
37020;BME280;22932;52.442;16.896;2022-11-10T08:38:05;100947.61;;;11.14;88.22
37020;BME280;22932;52.442;16.896;2022-11-10T08:40:36;100946.80;;;11.45;88.14
37020;BME280;22932;52.442;16.896;2022-11-10T08:43:06;100948.78;;;11.75;87.79
37020;BME280;22932;52.442;16.896;2022-11-10T08:45:36;100955.36;;;11.94;86.92
37020;BME280;22932;52.442;16.896;2022-11-10T08:48:07;100960.18;;;12.00;86.04
37020;BME280;22932;52.442;16.896;2022-11-10T08:50:38;100963.60;;;12.00;85.36
37020;BME280;22932;52.442;16.896;2022-11-10T08:53:11;100969.63;;;12.02;84.71
37020;BME280;22932;52.442;16.896;2022-11-10T08:55:41;100970.55;;;12.18;84.83
37020;BME280;22932;52.442;16.896;2022-11-10T08:58:13;100978.55;;;12.31;84.64
37020;BME280;22932;52.442;16.896;2022-11-10T09:00:43;100983.90;;;12.42;84.07
37020;BME280;22932;52.442;16.896;2022-11-10T09:03:15;100980.84;;;12.52;83.66
37020;BME280;22932;52.442;16.896;2022-11-10T09:05:46;100992.14;;;12.67;83.44
37020;BME280;22932;52.442;16.896;2022-11-10T09:08:16;100993.76;;;12.73;82.93
37020;BME280;22932;52.442;16.896;2022-11-10T09:10:50;100995.82;;;12.88;83.01
37020;BME280;22932;52.442;16.896;2022-11-10T09:13:19;101009.55;;;12.96;82.37
37020;BME280;22932;52.442;16.896;2022-11-10T09:15:49;101014.36;;;12.91;81.41
37020;BME280;22932;52.442;16.896;2022-11-10T09:18:18;101018.73;;;12.87;81.35
37020;BME280;22932;52.442;16.896;2022-11-10T09:20:48;101023.48;;;12.82;80.75
37020;BME280;22932;52.442;16.896;2022-11-10T09:23:19;101026.40;;;12.74;80.61
37020;BME280;22932;52.442;16.896;2022-11-10T09:25:53;101030.55;;;12.70;80.81
37020;BME280;22932;52.442;16.896;2022-11-10T09:28:23;101033.54;;;12.65;80.68
37020;BME280;22932;52.442;16.896;2022-11-10T09:30:53;101033.27;;;12.59;80.63
37020;BME280;22932;52.442;16.896;2022-11-10T09:33:22;101032.66;;;12.60;80.62
37020;BME280;22932;52.442;16.896;2022-11-10T09:35:57;101037.67;;;12.57;80.39
37020;BME280;22932;52.442;16.896;2022-11-10T09:38:27;101037.90;;;12.56;80.17
37020;BME280;22932;52.442;16.896;2022-11-10T09:41:02;101042.91;;;12.63;80.35
37020;BME280;22932;52.442;16.896;2022-11-10T09:43:36;101044.65;;;12.80;80.43
37020;BME280;22932;52.442;16.896;2022-11-10T09:46:12;101051.61;;;13.00;80.35
37020;BME280;22932;52.442;16.896;2022-11-10T09:48:46;101057.12;;;13.21;80.15
37020;BME280;22932;52.442;16.896;2022-11-10T09:51:21;101048.86;;;13.41;79.46
37020;BME280;22932;52.442;16.896;2022-11-10T09:53:55;101049.54;;;13.58;79.01
37020;BME280;22932;52.442;16.896;2022-11-10T09:56:31;101054.86;;;13.77;78.60
37020;BME280;22932;52.442;16.896;2022-11-10T09:59:05;101056.16;;;13.94;78.23
37020;BME280;22932;52.442;16.896;2022-11-10T10:01:45;101057.39;;;14.04;77.30
37020;BME280;22932;52.442;16.896;2022-11-10T10:04:28;101056.92;;;14.10;76.91
37020;BME280;22932;52.442;16.896;2022-11-10T10:07:06;101058.89;;;14.26;77.27
37020;BME280;22932;52.442;16.896;2022-11-10T10:09:42;101062.98;;;14.41;77.20
37020;BME280;22932;52.442;16.896;2022-11-10T10:12:21;101064.33;;;14.59;76.79
37020;BME280;22932;52.442;16.896;2022-11-10T10:15:09;101066.77;;;14.75;76.19
37020;BME280;22932;52.442;16.896;2022-11-10T10:17:50;101069.70;;;14.93;75.69
37020;BME280;22932;52.442;16.896;2022-11-10T10:20:29;101074.48;;;15.03;75.06
37020;BME280;22932;52.442;16.896;2022-11-10T10:23:11;101076.17;;;15.03;74.35
37020;BME280;22932;52.442;16.896;2022-11-10T10:25:43;101076.02;;;14.95;73.45
37020;BME280;22932;52.442;16.896;2022-11-10T10:28:18;101078.91;;;14.81;73.29
37020;BME280;22932;52.442;16.896;2022-11-10T10:30:48;101081.39;;;14.65;72.74
37020;BME280;22932;52.442;16.896;2022-11-10T10:33:19;101082.64;;;14.46;72.51
37020;BME280;22932;52.442;16.896;2022-11-10T10:35:50;101083.63;;;14.30;72.73
37020;BME280;22932;52.442;16.896;2022-11-10T10:38:27;101087.35;;;14.20;73.01
37020;BME280;22932;52.442;16.896;2022-11-10T10:41:08;101086.96;;;14.07;73.18
37020;BME280;22932;52.442;16.896;2022-11-10T10:43:42;101086.99;;;13.95;73.20
37020;BME280;22932;52.442;16.896;2022-11-10T10:46:15;101094.66;;;13.83;73.09
37020;BME280;22932;52.442;16.896;2022-11-10T10:48:46;101087.97;;;13.71;73.10
37020;BME280;22932;52.442;16.896;2022-11-10T10:51:30;101080.60;;;13.61;72.93
37020;BME280;22932;52.442;16.896;2022-11-10T10:53:59;101082.31;;;13.58;73.22
37020;BME280;22932;52.442;16.896;2022-11-10T10:56:31;101085.21;;;13.66;73.80
37020;BME280;22932;52.442;16.896;2022-11-10T10:59:03;101086.55;;;13.80;74.07
37020;BME280;22932;52.442;16.896;2022-11-10T11:01:36;101090.25;;;13.87;73.82
37020;BME280;22932;52.442;16.896;2022-11-10T11:04:27;101088.06;;;13.97;73.63
37020;BME280;22932;52.442;16.896;2022-11-10T11:06:58;101089.07;;;14.11;73.54
37020;BME280;22932;52.442;16.896;2022-11-10T11:09:37;101091.53;;;14.19;73.20
37020;BME280;22932;52.442;16.896;2022-11-10T11:12:11;101093.04;;;14.27;72.89
37020;BME280;22932;52.442;16.896;2022-11-10T11:14:40;101093.23;;;14.38;72.75
37020;BME280;22932;52.442;16.896;2022-11-10T11:17:16;101092.69;;;14.45;72.26
37020;BME280;22932;52.442;16.896;2022-11-10T11:19:48;101094.25;;;14.50;71.39
37020;BME280;22932;52.442;16.896;2022-11-10T11:22:34;101102.39;;;14.46;70.22
37020;BME280;22932;52.442;16.896;2022-11-10T11:25:17;101104.17;;;14.40;70.04
37020;BME280;22932;52.442;16.896;2022-11-10T11:27:57;101108.39;;;14.36;69.87
37020;BME280;22932;52.442;16.896;2022-11-10T11:30:40;101113.48;;;14.34;69.45
37020;BME280;22932;52.442;16.896;2022-11-10T11:33:22;101113.24;;;14.31;69.35
37020;BME280;22932;52.442;16.896;2022-11-10T11:35:59;101111.64;;;14.31;69.55
37020;BME280;22932;52.442;16.896;2022-11-10T11:38:33;101115.77;;;14.31;69.59
37020;BME280;22932;52.442;16.896;2022-11-10T11:41:20;101114.25;;;14.32;69.46
37020;BME280;22932;52.442;16.896;2022-11-10T11:44:16;101116.27;;;14.34;69.39
37020;BME280;22932;52.442;16.896;2022-11-10T11:46:54;101115.00;;;14.26;68.83
37020;BME280;22932;52.442;16.896;2022-11-10T11:49:45;101122.30;;;14.18;68.62
37020;BME280;22932;52.442;16.896;2022-11-10T11:52:25;101122.08;;;14.05;68.21
37020;BME280;22932;52.442;16.896;2022-11-10T11:55:09;101128.55;;;13.92;68.36
37020;BME280;22932;52.442;16.896;2022-11-10T11:57:52;101129.64;;;13.82;68.68
37020;BME280;22932;52.442;16.896;2022-11-10T12:00:27;101127.84;;;13.77;68.59
37020;BME280;22932;52.442;16.896;2022-11-10T12:03:13;101137.79;;;13.67;68.58
37020;BME280;22932;52.442;16.896;2022-11-10T12:05:55;101141.64;;;13.60;69.00
37020;BME280;22932;52.442;16.896;2022-11-10T12:08:33;101147.01;;;13.57;69.49
37020;BME280;22932;52.442;16.896;2022-11-10T12:11:13;101147.38;;;13.49;69.28
37020;BME280;22932;52.442;16.896;2022-11-10T12:13:54;101144.67;;;13.41;69.36
37020;BME280;22932;52.442;16.896;2022-11-10T12:16:30;101146.81;;;13.36;69.55
37020;BME280;22932;52.442;16.896;2022-11-10T12:19:08;101149.73;;;13.34;69.81
37020;BME280;22932;52.442;16.896;2022-11-10T12:21:50;101150.71;;;13.28;69.61
37020;BME280;22932;52.442;16.896;2022-11-10T12:24:27;101149.89;;;13.21;69.68
37020;BME280;22932;52.442;16.896;2022-11-10T12:27:06;101153.33;;;13.17;69.77
37020;BME280;22932;52.442;16.896;2022-11-10T12:29:42;101154.44;;;13.15;69.94
37020;BME280;22932;52.442;16.896;2022-11-10T12:32:18;101159.15;;;13.13;69.95
37020;BME280;22932;52.442;16.896;2022-11-10T12:34:52;101164.70;;;13.07;69.95
37020;BME280;22932;52.442;16.896;2022-11-10T12:37:30;101168.45;;;13.02;70.18
37020;BME280;22932;52.442;16.896;2022-11-10T12:40:04;101173.26;;;12.97;70.12
37020;BME280;22932;52.442;16.896;2022-11-10T12:42:42;101176.24;;;12.90;70.24
37020;BME280;22932;52.442;16.896;2022-11-10T12:45:19;101178.48;;;12.85;70.22
37020;BME280;22932;52.442;16.896;2022-11-10T12:47:50;101185.67;;;12.83;70.56
37020;BME280;22932;52.442;16.896;2022-11-10T12:50:27;101191.50;;;12.80;70.46
37020;BME280;22932;52.442;16.896;2022-11-10T12:53:04;101194.86;;;12.77;70.56
37020;BME280;22932;52.442;16.896;2022-11-10T12:55:43;101199.65;;;12.78;70.83
37020;BME280;22932;52.442;16.896;2022-11-10T12:58:13;101198.50;;;12.81;70.84
37020;BME280;22932;52.442;16.896;2022-11-10T13:00:53;101202.85;;;12.83;70.97
37020;BME280;22932;52.442;16.896;2022-11-10T13:03:28;101199.74;;;12.83;70.99
37020;BME280;22932;52.442;16.896;2022-11-10T13:06:01;101204.44;;;12.86;70.92
37020;BME280;22932;52.442;16.896;2022-11-10T13:08:34;101211.59;;;12.84;70.86
37020;BME280;22932;52.442;16.896;2022-11-10T13:11:20;101210.11;;;12.85;70.99
37020;BME280;22932;52.442;16.896;2022-11-10T13:13:55;101208.69;;;12.87;71.01
37020;BME280;22932;52.442;16.896;2022-11-10T13:16:48;101211.04;;;12.89;71.11
37020;BME280;22932;52.442;16.896;2022-11-10T13:19:50;101210.33;;;12.91;71.16
37020;BME280;22932;52.442;16.896;2022-11-10T13:22:32;101213.20;;;12.93;71.06
37020;BME280;22932;52.442;16.896;2022-11-10T13:28:09;101225.45;;;12.95;71.17
37020;BME280;22932;52.442;16.896;2022-11-10T13:30:42;101224.23;;;12.97;70.96
37020;BME280;22932;52.442;16.896;2022-11-10T13:33:34;101225.96;;;12.96;70.68
37020;BME280;22932;52.442;16.896;2022-11-10T13:36:06;101227.48;;;12.93;70.66
37020;BME280;22932;52.442;16.896;2022-11-10T13:38:38;101225.58;;;12.92;70.67
37020;BME280;22932;52.442;16.896;2022-11-10T13:41:23;101226.20;;;12.91;70.65
37020;BME280;22932;52.442;16.896;2022-11-10T13:43:54;101231.95;;;12.90;70.61
37020;BME280;22932;52.442;16.896;2022-11-10T13:46:34;101230.52;;;12.89;70.69
37020;BME280;22932;52.442;16.896;2022-11-10T13:49:17;101236.20;;;12.88;70.68
37020;BME280;22932;52.442;16.896;2022-11-10T13:51:57;101240.23;;;12.88;70.83
37020;BME280;22932;52.442;16.896;2022-11-10T13:57:33;101249.58;;;12.90;71.04
37020;BME280;22932;52.442;16.896;2022-11-10T14:00:23;101249.01;;;12.91;71.03
37020;BME280;22932;52.442;16.896;2022-11-10T14:02:55;101250.98;;;12.89;70.94
